Center, ND (58530)

2:41 PM MDT on June 02, 2015 (GMT -0600)
Rural Oliver County | | Change Station
CLOSE
Current Station
Personal Weather Station
Location: Hannover, ND
Elevation: 2162 ft
Nearby Weather Stations

Elev 2162 ft 47.10 °N, 101.44 °W | Updated 1 minute ago

Partly Cloudy
Partly Cloudy
72.5 °F
Feels Like 74 °F
N
3.0
Wind Variable Wind from NNW
Gusts 3.0 mph

Today
High -- | Low -- °F
--% Chance of Precip.
Yesterday
High -- | Low -- °F
Precip. -- in
4:53 AM 8:33 PM
Full, 100% visible
Pressure 29.75 in
Visibility 10.0 miles
Clouds Scattered Clouds 2600 ft
Scattered Clouds 3300 ft
Scattered Clouds 11000 ft
Heat Index 74 °F
Dew Point 64 °F
Humidity 75%
Rainfall 0.00 in
Snow Depth Not available.
UV 8 out of 12
Pollen 2.80 out of 12
Air Quality Not available.
Flu Activity Sporadic
METAR KHZE 022015Z AUTO 08005KT 10SM SCT026 SCT033 SCT110 23/17 A2975 RMK AO2

More Conditions Fewer Conditions

Pressure 29.75 in
Visibility 10.0 miles
Clouds Scattered Clouds 2600 ft
Scattered Clouds 3300 ft
Scattered Clouds 11000 ft
Heat Index 74 °F
Dew Point 64 °F
Humidity 75%
Rainfall 0.00 in
Snow Depth Not available.
UV 8 out of 12
Pollen 2.80 out of 12
Air Quality Not available.
Flu Activity Sporadic
METAR KHZE 022015Z AUTO 08005KT 10SM SCT026 SCT033 SCT110 23/17 A2975 RMK AO2

More Conditions Fewer Conditions

10-Day Weather Forecast

×

Almanac

Astronomy

Jun. 02, 2015 Rise Set
Actual Time
Civil Twilight
Nautical Twilight
Astronomical Twilight
Moon
Length of Visible Light
Length of Day
Tomorrow will be .
, % of the Moon is Illuminated

Today's Extremes

State Highs State Lows

Community

WunderPhotos

Upload Photos

1,826,022 photos uploaded!

WunderBlogs® & News

Nearby

Air Quality

  Air Quality AQ Index Pollutant
Not available.

Snow Depth

Station Depth Elevation

Earthquake Activity

City Distance Mag. Time & Date
Minimum magnitude displayed is 2.5.

Coastal Water Temperatures

Place Temperature

Stations

Nearby Weather Stations

Station Location Temp. Windchill Dew Point Humidity Wind Precip. Elev Updated Type